Time;durP1;ratioP1;P1;durP2;ratioP2;P2;SDS_P1;SDS_P2;PMS_P1;PMS_P2;Temp;Humidity;BMP_temperature;BMP_pressure;BME280_temperature;BME280_humidity;BME280_pressure;Samples;Min_cycle;Max_cycle;Signal;HPM_P1;HPM_P2
2022/01/08 00:01:02;;;;;;;2.50;0.93;;;9.50;76.80;;;;;;6060065;23;20073;-91
2022/01/08 00:03:29;;;;;;;3.22;1.23;;;9.40;76.40;;;;;;6059245;23;20016;-91
2022/01/08 00:05:57;;;;;;;2.33;0.95;;;9.50;76.30;;;;;;6080986;23;20014;-91
2022/01/08 00:08:24;;;;;;;2.65;0.70;;;9.80;76.60;;;;;;6058980;23;20026;-91
2022/01/08 00:10:52;;;;;;;2.28;0.85;;;9.40;75.90;;;;;;6058267;23;20409;-91
2022/01/08 00:13:18;;;;;;;4.63;1.10;;;9.40;75.90;;;;;;6060061;23;20006;-90
2022/01/08 00:15:44;;;;;;;4.75;1.48;;;9.40;76.40;;;;;;6083030;23;20010;-91
2022/01/08 00:18:10;;;;;;;5.25;0.85;;;9.40;76.10;;;;;;6057528;23;20501;-91
2022/01/08 00:20:36;;;;;;;2.70;1.00;;;9.40;75.70;;;;;;6058423;23;20033;-91
2022/01/08 00:23:03;;;;;;;2.95;1.08;;;9.40;76.00;;;;;;6066149;23;20009;-90
2022/01/08 00:25:29;;;;;;;2.10;1.10;;;9.40;75.40;;;;;;6064836;23;20044;-90
2022/01/08 00:27:55;;;;;;;5.78;3.40;;;9.10;75.60;;;;;;6064865;23;20010;-91
2022/01/08 00:30:21;;;;;;;4.28;2.53;;;9.40;75.70;;;;;;6082399;23;20018;-90
2022/01/08 00:32:47;;;;;;;16.27;4.43;;;9.40;75.60;;;;;;6058558;23;20006;-90
2022/01/08 00:35:14;;;;;;;10.95;2.95;;;9.40;75.60;;;;;;6058339;23;20041;-90
2022/01/08 00:37:40;;;;;;;13.85;4.32;;;9.80;75.70;;;;;;6058627;23;20065;-91
2022/01/08 00:40:09;;;;;;;12.68;3.80;;;9.40;75.10;;;;;;6057564;23;20659;-91
2022/01/08 00:42:37;;;;;;;9.07;3.53;;;9.40;75.10;;;;;;6082459;23;20105;-91
2022/01/08 00:45:04;;;;;;;4.97;1.80;;;9.40;75.10;;;;;;6081009;23;20575;-91
2022/01/08 00:47:31;;;;;;;6.22;2.78;;;9.30;75.00;;;;;;6058082;23;20018;-91
2022/01/08 00:49:58;;;;;;;9.75;2.75;;;9.30;75.10;;;;;;6058145;23;20024;-90
2022/01/08 00:52:24;;;;;;;5.32;2.22;;;9.30;75.10;;;;;;6059065;23;20097;-90
2022/01/08 00:54:50;;;;;;;7.90;2.80;;;9.30;75.10;;;;;;6083710;23;20006;-91
2022/01/08 00:57:18;;;;;;;4.45;1.77;;;9.30;75.20;;;;;;6081779;23;20005;-90
2022/01/08 00:59:44;;;;;;;5.88;1.48;;;9.30;75.40;;;;;;6059304;23;20360;-90
2022/01/08 01:02:10;;;;;;;5.93;2.20;;;9.30;75.30;;;;;;6057929;23;20006;-90
2022/01/08 01:04:36;;;;;;;5.20;2.42;;;9.40;75.20;;;;;;6059942;23;20065;-90
2022/01/08 01:07:02;;;;;;;4.30;1.77;;;9.40;75.20;;;;;;6080583;23;20009;-90
2022/01/08 01:09:28;;;;;;;5.50;3.13;;;9.30;75.00;;;;;;6057944;23;20032;-90
2022/01/08 01:11:57;;;;;;;4.57;2.17;;;9.30;75.00;;;;;;6058602;23;20143;-90
2022/01/08 01:14:25;;;;;;;5.28;2.05;;;9.80;75.20;;;;;;6084265;23;20454;-90
2022/01/08 01:16:51;;;;;;;6.05;2.78;;;9.30;74.70;;;;;;6060593;23;20507;-90
2022/01/08 01:19:17;;;;;;;4.93;2.63;;;9.30;74.70;;;;;;6057414;23;20014;-91
2022/01/08 01:21:42;;;;;;;4.38;1.77;;;9.50;74.80;;;;;;6058103;23;20861;-91
2022/01/08 01:24:15;;;;;;;3.67;1.30;;;9.60;74.90;;;;;;6082942;23;20017;-90
2022/01/08 01:48:20;;;;;;;5.32;1.92;;;9.00;74.20;;;;;;6089958;23;20064;-90
2022/01/08 01:50:47;;;;;;;6.13;1.90;;;9.10;74.50;;;;;;6063623;23;20231;-90
2022/01/08 01:53:14;;;;;;;7.32;2.55;;;9.00;74.30;;;;;;6062557;23;20017;-90
2022/01/08 01:55:41;;;;;;;2.90;1.27;;;9.00;74.20;;;;;;6060694;23;20050;-90
2022/01/08 01:58:07;;;;;;;6.13;2.08;;;9.30;74.40;;;;;;6062903;23;20006;-91
2022/01/08 02:00:34;;;;;;;4.22;1.35;;;9.30;74.90;;;;;;6087087;23;20014;-91
2022/01/08 02:03:00;;;;;;;4.20;1.73;;;9.00;74.20;;;;;;6064489;23;20009;-90
2022/01/08 02:05:27;;;;;;;6.88;2.72;;;9.30;74.40;;;;;;6061923;23;20016;-91
2022/01/08 02:07:57;;;;;;;5.97;2.60;;;8.90;74.10;;;;;;6085264;23;20006;-91
2022/01/08 02:10:23;;;;;;;7.13;2.85;;;8.90;74.80;;;;;;6061340;23;20025;-91
2022/01/08 02:12:49;;;;;;;9.85;3.33;;;8.90;74.10;;;;;;6060592;23;20405;-90
2022/01/08 02:15:15;;;;;;;6.43;3.13;;;8.90;74.10;;;;;;6062041;23;20493;-90
2022/01/08 02:17:41;;;;;;;4.50;2.55;;;8.90;74.20;;;;;;6064605;23;20088;-90
2022/01/08 02:20:08;;;;;;;6.13;2.55;;;9.40;74.40;;;;;;6086337;23;20457;-90
2022/01/08 02:22:34;;;;;;;5.28;2.20;;;8.90;74.00;;;;;;6083893;23;20193;-91
2022/01/08 02:24:59;;;;;;;7.50;1.80;;;8.80;74.00;;;;;;6061990;23;20048;-90
2022/01/08 02:27:25;;;;;;;5.20;1.70;;;8.80;74.00;;;;;;6063294;23;20058;-91
2022/01/08 02:29:52;;;;;;;4.03;1.58;;;8.80;73.90;;;;;;6084419;23;20073;-90
2022/01/08 02:32:24;;;;;;;2.72;1.33;;;8.80;73.80;;;;;;6086104;23;20017;-90
2022/01/08 02:34:50;;;;;;;4.05;1.17;;;8.80;73.80;;;;;;6088110;23;20017;-91
2022/01/08 02:37:19;;;;;;;3.53;1.08;;;8.70;73.80;;;;;;6061331;23;20037;-91
2022/01/08 02:39:48;;;;;;;2.80;0.80;;;8.70;73.70;;;;;;6085893;23;20089;-90
2022/01/08 02:42:17;;;;;;;3.97;1.20;;;9.10;74.00;;;;;;6067237;23;20041;-90
2022/01/08 02:44:44;;;;;;;3.60;1.50;;;8.60;73.70;;;;;;6070494;23;20546;-90
2022/01/08 02:47:14;;;;;;;3.40;1.25;;;8.80;73.80;;;;;;6069872;23;20014;-90
2022/01/08 02:49:39;;;;;;;3.45;1.00;;;8.50;73.70;;;;;;6090019;23;20025;-90
2022/01/08 02:52:07;;;;;;;3.58;0.90;;;8.60;73.90;;;;;;6083860;23;20389;-90
2022/01/08 02:54:33;;;;;;;4.57;0.90;;;8.60;74.00;;;;;;6063039;23;20020;-91
2022/01/08 02:56:59;;;;;;;2.97;0.75;;;9.00;74.30;;;;;;6062272;23;20002;-90
2022/01/08 02:59:25;;;;;;;4.13;0.70;;;8.80;74.20;;;;;;6063699;23;20340;-90
2022/01/08 03:01:52;;;;;;;4.18;0.70;;;8.60;74.00;;;;;;6062319;23;20010;-90
2022/01/08 03:04:19;;;;;;;2.35;0.80;;;8.60;74.10;;;;;;6065448;23;20010;-90
2022/01/08 03:06:45;;;;;;;3.60;0.90;;;8.60;74.10;;;;;;6090922;23;20441;-91
2022/01/08 03:09:11;;;;;;;2.92;0.73;;;8.60;74.10;;;;;;6086931;23;20094;-91
2022/01/08 03:11:38;;;;;;;3.35;0.65;;;8.60;74.10;;;;;;6061776;23;20354;-91
2022/01/08 03:14:05;;;;;;;6.68;0.82;;;8.60;74.70;;;;;;6062306;23;20013;-90
2022/01/08 03:16:31;;;;;;;5.70;1.00;;;8.60;74.10;;;;;;6059663;23;20014;-90
2022/01/08 03:18:57;;;;;;;2.97;0.88;;;8.60;74.60;;;;;;6060334;23;20319;-90
2022/01/08 03:21:23;;;;;;;3.00;0.73;;;8.60;74.30;;;;;;6082095;23;20014;-91
2022/01/08 03:23:56;;;;;;;3.97;1.05;;;8.80;74.40;;;;;;6081806;23;20045;-90
2022/01/08 03:26:26;;;;;;;2.95;0.80;;;8.60;74.30;;;;;;6083635;23;20052;-90
2022/01/08 03:28:52;;;;;;;3.42;0.80;;;8.70;74.50;;;;;;6059474;23;20010;-91
2022/01/08 03:31:19;;;;;;;3.70;0.50;;;8.60;74.40;;;;;;6081803;23;20537;-90
2022/01/08 03:33:46;;;;;;;2.80;0.80;;;8.70;74.50;;;;;;6060236;23;20073;-90
2022/01/08 03:36:14;;;;;;;3.17;0.95;;;8.70;74.50;;;;;;6083330;23;20081;-90
2022/01/08 03:38:40;;;;;;;4.35;0.70;;;8.70;74.70;;;;;;6060565;23;20462;-89
2022/01/08 03:41:06;;;;;;;2.10;0.82;;;8.70;74.70;;;;;;6082556;23;20013;-91
2022/01/08 03:43:32;;;;;;;4.95;0.90;;;8.70;75.30;;;;;;6058494;23;20064;-91
2022/01/08 03:46:00;;;;;;;1.00;0.57;;;8.70;74.70;;;;;;6082878;23;20383;-90
2022/01/08 03:48:32;;;;;;;5.68;0.90;;;8.90;76.10;;;;;;6059382;23;20014;-91
2022/01/08 03:50:59;;;;;;;2.55;0.63;;;8.70;74.80;;;;;;6060312;23;20364;-91
2022/01/08 03:53:26;;;;;;;2.38;0.93;;;8.70;75.00;;;;;;6081531;23;20014;-90
2022/01/08 03:55:53;;;;;;;3.72;1.02;;;9.10;75.00;;;;;;6084023;23;20100;-90
2022/01/08 03:58:19;;;;;;;4.55;1.00;;;8.80;75.30;;;;;;6061216;23;20323;-91
2022/01/08 04:00:47;;;;;;;7.15;1.23;;;8.80;75.20;;;;;;6081153;23;20080;-90
2022/01/08 04:03:13;;;;;;;2.75;0.90;;;8.80;75.20;;;;;;6058264;23;20458;-91
2022/01/08 04:05:39;;;;;;;5.55;0.82;;;8.90;75.20;;;;;;6082763;23;20024;-90
2022/01/08 04:08:06;;;;;;;5.68;0.95;;;9.20;75.60;;;;;;6058162;23;20010;-90
2022/01/08 04:10:32;;;;;;;1.63;0.60;;;8.80;75.50;;;;;;6060773;23;20032;-90
2022/01/08 04:13:04;;;;;;;1.15;0.43;;;8.80;75.20;;;;;;6084249;23;20005;-90
2022/01/08 04:15:35;;;;;;;1.70;0.50;;;8.80;75.70;;;;;;6086608;23;20018;-90
2022/01/08 04:18:00;;;;;;;5.05;0.90;;;9.30;75.60;;;;;;6062854;23;20142;-90
2022/01/08 04:20:27;;;;;;;4.60;1.02;;;8.80;75.60;;;;;;6058948;23;20010;-90
2022/01/08 04:22:53;;;;;;;5.72;1.08;;;8.80;75.50;;;;;;6082964;23;20013;-90
2022/01/08 04:25:22;;;;;;;3.83;0.98;;;9.10;75.70;;;;;;6059011;23;20096;-91
2022/01/08 04:27:48;;;;;;;4.57;0.93;;;8.80;75.10;;;;;;6060473;23;20014;-91
2022/01/08 04:30:14;;;;;;;2.42;0.75;;;9.40;75.80;;;;;;6081409;23;20036;-90
2022/01/08 04:32:40;;;;;;;10.10;1.27;;;8.90;75.30;;;;;;6084329;23;20029;-91
2022/01/08 04:35:07;;;;;;;3.72;1.08;;;8.80;75.60;;;;;;6082933;23;20014;-91
2022/01/08 04:37:33;;;;;;;7.38;0.90;;;8.90;75.30;;;;;;6081176;23;20030;-90
2022/01/08 04:39:59;;;;;;;2.15;1.13;;;9.40;75.90;;;;;;6083635;23;20081;-90
2022/01/08 04:42:24;;;;;;;4.72;0.80;;;8.90;76.30;;;;;;6061751;23;20010;-91
2022/01/08 04:44:52;;;;;;;4.03;0.93;;;8.90;75.60;;;;;;6060171;23;20037;-90
2022/01/08 04:47:18;;;;;;;5.00;1.25;;;8.90;75.80;;;;;;6083938;23;20010;-91
2022/01/08 04:49:44;;;;;;;3.67;0.80;;;8.80;75.70;;;;;;6059166;23;20024;-90
2022/01/08 04:52:10;;;;;;;4.80;0.80;;;8.80;75.50;;;;;;6058522;23;20100;-91
2022/01/08 04:54:36;;;;;;;3.60;0.85;;;8.90;75.90;;;;;;6058416;23;20088;-91
2022/01/08 04:57:02;;;;;;;4.72;0.93;;;8.90;75.90;;;;;;6059796;23;20081;-90
2022/01/08 04:59:28;;;;;;;1.98;0.80;;;8.80;75.70;;;;;;6061423;23;20002;-91
2022/01/08 05:01:54;;;;;;;3.15;1.00;;;8.90;76.00;;;;;;6085305;23;20017;-91
2022/01/08 05:04:21;;;;;;;3.30;0.80;;;9.20;75.80;;;;;;6096385;23;20017;-91
2022/01/08 05:06:46;;;;;;;6.90;1.73;;;8.80;75.60;;;;;;6092594;23;20241;-91
2022/01/08 05:09:12;;;;;;;3.25;0.60;;;8.80;75.60;;;;;;6069220;23;20016;-90
2022/01/08 05:11:38;;;;;;;7.45;0.77;;;8.80;75.70;;;;;;6062324;23;20041;-90
2022/01/08 05:14:04;;;;;;;12.95;1.10;;;8.90;75.70;;;;;;6062362;23;20489;-90
2022/01/08 05:16:30;;;;;;;3.63;0.98;;;8.80;75.70;;;;;;6063024;23;20520;-91
2022/01/08 05:18:57;;;;;;;4.57;0.90;;;8.90;75.80;;;;;;6062480;23;20496;-90
2022/01/08 05:21:29;;;;;;;4.45;0.73;;;9.00;76.40;;;;;;6086524;23;20041;-90
2022/01/08 05:23:56;;;;;;;5.35;1.00;;;8.90;75.80;;;;;;6065256;23;20042;-90
2022/01/08 05:26:25;;;;;;;3.97;1.00;;;8.80;75.70;;;;;;6088102;23;20060;-90
2022/01/08 05:28:52;;;;;;;2.53;1.15;;;8.80;75.70;;;;;;6088738;23;20064;-90
2022/01/08 05:31:20;;;;;;;2.35;0.80;;;8.90;75.80;;;;;;6086335;23;20014;-90
2022/01/08 05:33:47;;;;;;;2.08;0.60;;;8.80;75.80;;;;;;6063625;23;20010;-91
2022/01/08 05:36:13;;;;;;;6.03;1.15;;;9.40;76.10;;;;;;6062408;23;20081;-91
2022/01/08 05:38:39;;;;;;;3.10;1.10;;;8.90;75.80;;;;;;6062550;23;20441;-90
2022/01/08 05:41:04;;;;;;;5.95;1.45;;;8.90;75.80;;;;;;6088316;23;20068;-91
2022/01/08 05:43:30;;;;;;;3.30;0.70;;;8.90;75.80;;;;;;6062135;23;20468;-90
2022/01/08 05:45:56;;;;;;;8.32;0.75;;;8.90;75.80;;;;;;6086098;23;20037;-90
2022/01/08 05:48:23;;;;;;;5.03;0.50;;;8.80;75.80;;;;;;6062995;23;20448;-90
2022/01/08 05:50:49;;;;;;;0.93;0.40;;;8.80;75.80;;;;;;6061881;23;20126;-90
2022/01/08 05:53:19;;;;;;;4.57;0.90;;;8.90;75.90;;;;;;6087002;23;20024;-90
2022/01/08 05:55:46;;;;;;;2.78;0.63;;;8.90;75.90;;;;;;6088258;23;20032;-90
2022/01/08 05:58:12;;;;;;;14.32;2.78;;;9.40;76.30;;;;;;6063339;23;20101;-90
2022/01/08 06:00:38;;;;;;;4.03;1.20;;;8.80;75.90;;;;;;6085329;23;20397;-90
2022/01/08 06:03:04;;;;;;;7.85;1.63;;;9.30;76.30;;;;;;6060120;23;20033;-90
2022/01/08 06:05:29;;;;;;;6.32;1.00;;;8.90;76.20;;;;;;6062657;23;20016;-90
2022/01/08 06:07:55;;;;;;;5.10;0.90;;;8.80;76.20;;;;;;6086297;23;20273;-90
2022/01/08 06:10:21;;;;;;;5.03;0.63;;;8.80;76.30;;;;;;6062469;23;20064;-90
2022/01/08 06:12:48;;;;;;;7.25;0.98;;;8.80;76.30;;;;;;6062370;23;20010;-90
2022/01/08 06:15:13;;;;;;;9.77;1.27;;;8.80;76.40;;;;;;6063044;23;20036;-90
2022/01/08 06:17:39;;;;;;;5.28;0.77;;;8.80;76.40;;;;;;6087443;23;20461;-90
2022/01/08 06:20:06;;;;;;;3.25;1.30;;;8.90;76.60;;;;;;6062096;23;20006;-90
2022/01/08 06:22:32;;;;;;;6.75;0.80;;;8.90;76.60;;;;;;6059449;23;20093;-90
2022/01/08 06:24:58;;;;;;;6.47;1.20;;;8.90;76.70;;;;;;6065035;23;20041;-91
2022/01/08 06:27:23;;;;;;;6.57;1.10;;;8.90;76.70;;;;;;6088550;23;20114;-91
2022/01/08 06:29:49;;;;;;;7.72;1.85;;;8.90;76.80;;;;;;6063173;23;20016;-91
2022/01/08 06:32:16;;;;;;;4.95;1.02;;;9.20;77.00;;;;;;6062403;23;20453;-90
2022/01/08 06:34:43;;;;;;;7.57;1.05;;;8.90;76.90;;;;;;6063322;23;20097;-90
2022/01/08 06:37:09;;;;;;;6.18;1.17;;;9.20;77.10;;;;;;6085759;23;20074;-90
2022/01/08 06:39:35;;;;;;;5.50;1.20;;;8.90;77.00;;;;;;6087291;23;20002;-90
2022/01/08 06:42:01;;;;;;;8.70;1.73;;;9.00;77.20;;;;;;6086075;23;20036;-90
2022/01/08 06:44:27;;;;;;;7.70;1.10;;;8.90;77.20;;;;;;6088002;23;20010;-90
2022/01/08 06:46:53;;;;;;;9.40;1.35;;;9.50;77.60;;;;;;6062079;23;20457;-90
2022/01/08 06:49:19;;;;;;;8.57;1.45;;;9.00;77.40;;;;;;6063395;23;20345;-90
2022/01/08 06:51:44;;;;;;;6.30;1.10;;;8.90;77.40;;;;;;6085906;23;20489;-90
2022/01/08 06:54:10;;;;;;;12.95;1.50;;;9.00;77.50;;;;;;6085841;23;20021;-90
2022/01/08 06:56:36;;;;;;;10.25;1.42;;;9.00;78.10;;;;;;6062358;23;20387;-90
2022/01/08 06:59:02;;;;;;;8.30;1.20;;;9.00;77.60;;;;;;6062582;23;20002;-89
2022/01/08 07:01:28;;;;;;;5.85;1.67;;;9.30;77.80;;;;;;6087902;23;20025;-90
2022/01/08 07:03:56;;;;;;;10.15;1.75;;;9.30;77.90;;;;;;6086372;23;20014;-90
2022/01/08 07:06:22;;;;;;;6.75;1.50;;;9.50;78.00;;;;;;6061988;23;20028;-90
2022/01/08 07:08:49;;;;;;;6.75;1.58;;;9.00;77.90;;;;;;6083784;23;20069;-90
2022/01/08 07:11:16;;;;;;;10.15;1.55;;;9.00;77.90;;;;;;6063219;23;20013;-89
2022/01/08 07:13:42;;;;;;;6.28;1.48;;;9.00;78.00;;;;;;6062990;23;20014;-90
2022/01/08 07:16:08;;;;;;;8.05;1.27;;;9.00;78.10;;;;;;6086476;23;20014;-90
2022/01/08 07:18:34;;;;;;;13.20;1.58;;;9.00;78.30;;;;;;6085788;23;20009;-90
2022/01/08 07:21:00;;;;;;;5.47;1.45;;;9.20;78.50;;;;;;6062618;23;20028;-90
2022/01/08 07:23:26;;;;;;;11.43;1.75;;;9.00;78.60;;;;;;6091545;23;20066;-90
2022/01/08 07:25:51;;;;;;;4.80;1.55;;;9.00;78.60;;;;;;6093844;23;20013;-90
2022/01/08 07:28:17;;;;;;;6.38;1.08;;;9.20;78.90;;;;;;6068946;23;20006;-90
2022/01/08 07:30:44;;;;;;;5.68;1.15;;;9.20;78.90;;;;;;6066863;23;20041;-91
2022/01/08 07:33:10;;;;;;;5.38;1.10;;;9.00;78.80;;;;;;6085952;23;20010;-90
2022/01/08 07:35:36;;;;;;;9.45;1.83;;;9.00;79.00;;;;;;6082761;23;20109;-90
2022/01/08 07:38:02;;;;;;;7.75;1.15;;;9.00;79.00;;;;;;6062104;23;20006;-90
2022/01/08 07:40:27;;;;;;;6.10;1.52;;;9.00;79.10;;;;;;6064036;23;20014;-90
2022/01/08 07:42:53;;;;;;;7.55;1.30;;;9.00;79.20;;;;;;6060668;23;20100;-90
2022/01/08 07:45:20;;;;;;;5.60;1.05;;;9.60;79.50;;;;;;6062686;23;20009;-90
2022/01/08 07:47:46;;;;;;;8.30;1.55;;;9.50;79.50;;;;;;6062027;23;20468;-90
2022/01/08 07:50:13;;;;;;;6.65;1.90;;;9.20;79.40;;;;;;6086110;23;20029;-90
2022/01/08 07:52:39;;;;;;;6.20;1.70;;;8.90;79.50;;;;;;6086441;23;20014;-90
2022/01/08 07:55:05;;;;;;;5.78;1.90;;;9.10;79.60;;;;;;6086288;23;20445;-90
2022/01/08 07:57:31;;;;;;;4.68;1.90;;;9.10;79.60;;;;;;6085344;23;20092;-91
2022/01/08 07:59:57;;;;;;;8.00;2.10;;;9.40;79.90;;;;;;6063090;23;20033;-90
2022/01/08 08:02:23;;;;;;;7.85;2.50;;;9.10;79.80;;;;;;6062266;23;20033;-90
2022/01/08 08:04:49;;;;;;;6.15;2.40;;;9.10;79.90;;;;;;6086456;23;20010;-91
2022/01/08 08:07:37;;;;;;;6.43;2.60;;;9.50;80.20;;;;;;6085127;23;20022;-90
2022/01/08 08:10:12;;;;;;;8.70;2.80;;;9.40;80.20;;;;;;6086111;23;20002;-90
2022/01/08 08:12:39;;;;;;;5.88;2.00;;;9.20;80.20;;;;;;6085921;23;20037;-90
2022/01/08 08:15:07;;;;;;;7.35;1.70;;;9.60;80.50;;;;;;6062395;23;20002;-90
2022/01/08 08:17:33;;;;;;;6.70;2.40;;;9.20;80.30;;;;;;6084188;23;20037;-90
2022/01/08 08:19:59;;;;;;;12.57;1.60;;;9.40;80.50;;;;;;6061158;23;20006;-90
2022/01/08 08:22:25;;;;;;;4.57;1.48;;;9.20;80.50;;;;;;6059762;23;20038;-90
2022/01/08 08:24:53;;;;;;;7.65;2.30;;;9.20;80.60;;;;;;6086266;23;20010;-90
2022/01/08 08:27:19;;;;;;;5.43;1.77;;;9.20;80.70;;;;;;6062589;23;20209;-90
2022/01/08 08:29:45;;;;;;;10.05;1.95;;;9.30;80.70;;;;;;6060514;23;20016;-90
2022/01/08 08:32:11;;;;;;;7.25;2.00;;;9.30;80.80;;;;;;6061008;23;20097;-90
2022/01/08 08:34:36;;;;;;;6.13;1.45;;;9.30;80.80;;;;;;6060843;23;20093;-89
2022/01/08 08:37:03;;;;;;;10.43;1.70;;;9.30;80.90;;;;;;6060439;23;20010;-91
2022/01/08 08:39:28;;;;;;;12.55;2.28;;;9.30;81.00;;;;;;6084931;23;20524;-90
2022/01/08 08:41:54;;;;;;;13.10;2.88;;;9.70;81.30;;;;;;6060650;23;20026;-90
2022/01/08 08:44:20;;;;;;;7.55;2.28;;;9.30;81.20;;;;;;6060489;23;20018;-90
2022/01/08 08:46:46;;;;;;;10.20;2.25;;;9.30;81.20;;;;;;6062723;23;20331;-90
2022/01/08 08:49:12;;;;;;;7.50;2.78;;;9.40;81.40;;;;;;6085172;23;20016;-91
2022/01/08 08:51:38;;;;;;;6.50;2.03;;;9.40;81.40;;;;;;6083255;23;20033;-91
2022/01/08 08:54:04;;;;;;;13.05;3.08;;;9.40;81.40;;;;;;6082896;23;20014;-90
2022/01/08 08:56:30;;;;;;;20.10;4.70;;;9.40;81.50;;;;;;6059659;23;20014;-91
2022/01/08 08:58:56;;;;;;;11.02;3.47;;;9.40;81.60;;;;;;6061688;23;20016;-90
2022/01/08 09:01:23;;;;;;;11.52;3.45;;;9.40;81.60;;;;;;6061152;23;20018;-91
2022/01/08 09:03:49;;;;;;;16.63;3.22;;;9.50;81.70;;;;;;6084666;23;20352;-90
2022/01/08 09:06:15;;;;;;;14.32;3.00;;;9.40;81.70;;;;;;6060219;23;20037;-89
2022/01/08 09:08:41;;;;;;;11.60;2.78;;;9.40;81.80;;;;;;6083825;23;20013;-89
2022/01/08 09:11:06;;;;;;;15.77;3.08;;;9.90;82.20;;;;;;6061362;23;20077;-90
2022/01/08 09:13:32;;;;;;;15.23;3.72;;;9.50;82.10;;;;;;6060564;23;20010;-90
2022/01/08 09:15:58;;;;;;;13.02;3.70;;;9.60;82.30;;;;;;6060246;23;20010;-90
2022/01/08 09:18:24;;;;;;;17.75;2.70;;;9.50;82.20;;;;;;6084513;23;20424;-89
2022/01/08 09:20:49;;;;;;;14.35;2.83;;;9.50;82.30;;;;;;6084705;23;20014;-90
2022/01/08 09:23:15;;;;;;;15.55;3.15;;;9.50;82.40;;;;;;6059473;23;20010;-90
2022/01/08 09:25:41;;;;;;;15.13;3.83;;;9.90;82.70;;;;;;6058982;23;20002;-89
2022/01/08 09:28:07;;;;;;;6.25;2.55;;;9.50;82.60;;;;;;6084486;23;20014;-90
2022/01/08 09:30:32;;;;;;;22.92;2.83;;;9.50;83.10;;;;;;6061003;23;20061;-90
2022/01/08 09:32:58;;;;;;;14.95;3.90;;;9.60;83.30;;;;;;6059821;23;20080;-90
2022/01/08 09:35:25;;;;;;;15.55;4.05;;;9.50;82.70;;;;;;6059952;23;20037;-90
2022/01/08 09:37:52;;;;;;;13.32;2.67;;;9.60;82.80;;;;;;6060191;23;20022;-89
2022/01/08 09:40:19;;;;;;;16.48;2.92;;;9.60;82.90;;;;;;6084958;23;20032;-90
2022/01/08 09:42:46;;;;;;;16.70;5.20;;;9.60;83.10;;;;;;6085238;23;20017;-90
2022/01/08 09:45:12;;;;;;;18.75;3.67;;;9.60;83.00;;;;;;6085282;23;20285;-90
2022/01/08 09:47:39;;;;;;;17.50;3.78;;;9.60;83.20;;;;;;6087037;23;20014;-91
2022/01/08 09:50:06;;;;;;;18.10;3.42;;;9.60;83.20;;;;;;6061140;23;20006;-89
2022/01/08 09:52:33;;;;;;;11.98;2.90;;;9.60;83.30;;;;;;6082804;23;20018;-90
2022/01/08 09:54:59;;;;;;;16.35;2.20;;;9.80;83.40;;;;;;6085724;23;20002;-89
2022/01/08 09:57:25;;;;;;;19.42;3.17;;;10.00;83.60;;;;;;6059073;23;20033;-90
2022/01/08 09:59:51;;;;;;;22.67;2.70;;;9.70;83.50;;;;;;6086477;23;20434;-90
2022/01/08 10:02:21;;;;;;;7.43;1.60;;;9.70;83.50;;;;;;6083703;23;20018;-90
2022/01/08 10:04:48;;;;;;;13.75;2.97;;;9.80;83.60;;;;;;6061266;23;20053;-91
2022/01/08 10:07:20;;;;;;;17.00;2.88;;;9.70;83.70;;;;;;6060760;23;20045;-90
2022/01/08 10:10:12;;;;;;;15.75;2.55;;;9.80;83.90;;;;;;6084339;23;20006;-90
2022/01/08 10:12:55;;;;;;;11.60;3.10;;;9.70;83.80;;;;;;6063742;23;20048;-90
2022/01/08 10:18:33;;;;;;;15.98;2.53;;;9.70;83.80;;;;;;6090549;23;20013;-90
2022/01/08 10:21:02;;;;;;;23.60;4.05;;;9.70;83.90;;;;;;6109223;23;20445;-90
2022/01/08 10:23:31;;;;;;;12.85;2.65;;;9.90;84.10;;;;;;6129993;23;20030;-89
2022/01/08 10:26:04;;;;;;;14.45;2.90;;;9.80;84.00;;;;;;6108467;23;20033;-89
2022/01/08 10:28:50;;;;;;;19.13;3.03;;;9.80;84.10;;;;;;6110270;23;20021;-90
2022/01/08 10:31:41;;;;;;;16.00;2.03;;;9.50;84.00;;;;;;6109590;23;20389;-90
2022/01/08 10:34:21;;;;;;;11.40;2.63;;;9.80;84.10;;;;;;6111205;23;20507;-90
2022/01/08 10:36:56;;;;;;;14.35;2.75;;;9.80;84.20;;;;;;6095500;23;20026;-90
2022/01/08 10:39:34;;;;;;;12.40;2.53;;;9.80;84.20;;;;;;6105452;23;20010;-89
2022/01/08 10:42:11;;;;;;;16.13;2.75;;;9.90;84.30;;;;;;6056712;23;20010;-90
2022/01/08 10:44:37;;;;;;;12.02;2.88;;;9.80;84.30;;;;;;6056637;23;20006;-89
2022/01/08 10:47:17;;;;;;;16.65;2.85;;;9.80;84.40;;;;;;6033807;23;20081;-90
2022/01/08 10:49:47;;;;;;;20.00;3.60;;;9.80;84.40;;;;;;6056474;23;20013;-90
2022/01/08 10:52:19;;;;;;;15.95;2.75;;;9.90;84.50;;;;;;6032926;23;20034;-90
2022/01/08 10:54:57;;;;;;;17.90;2.88;;;9.80;84.50;;;;;;6011152;23;20397;-90
2022/01/08 10:57:40;;;;;;;14.45;2.83;;;9.80;84.60;;;;;;6076126;23;20018;-90
2022/01/08 11:00:12;;;;;;;17.08;2.47;;;9.80;84.60;;;;;;6084868;23;20002;-90
2022/01/08 11:02:41;;;;;;;10.82;2.25;;;9.90;84.70;;;;;;6085091;23;20092;-90
2022/01/08 11:05:09;;;;;;;17.33;3.40;;;9.90;84.80;;;;;;6061966;23;20025;-90
2022/01/08 11:07:37;;;;;;;20.42;3.22;;;9.90;84.90;;;;;;6084295;23;20046;-90
2022/01/08 11:10:12;;;;;;;12.30;2.33;;;9.90;84.90;;;;;;6085885;23;20077;-90
2022/01/08 11:12:42;;;;;;;14.38;2.78;;;9.90;85.00;;;;;;6086135;23;20544;-90
2022/01/08 11:17:46;;;;;;;11.93;2.80;;;9.90;85.10;;;;;;6084647;23;20010;-90
2022/01/08 11:20:25;;;;;;;11.98;2.17;;;10.00;85.20;;;;;;6086196;23;20057;-90
2022/01/08 11:22:53;;;;;;;16.00;2.53;;;10.00;85.30;;;;;;6082288;23;20029;-91
2022/01/08 11:25:21;;;;;;;10.25;3.30;;;10.00;85.40;;;;;;6085778;23;20009;-91
2022/01/08 11:28:14;;;;;;;16.40;3.00;;;10.30;85.60;;;;;;6085996;23;20057;-90
2022/01/08 11:30:45;;;;;;;12.90;2.35;;;10.00;85.60;;;;;;6085847;23;20013;-90
2022/01/08 11:33:17;;;;;;;4.32;1.23;;;10.00;85.60;;;;;;6084511;23;20029;-90
2022/01/08 11:35:46;;;;;;;16.15;2.38;;;10.00;85.70;;;;;;6085758;23;20076;-90
2022/01/08 11:38:16;;;;;;;15.23;2.80;;;10.00;85.90;;;;;;6084185;23;20077;-89
2022/01/08 11:40:44;;;;;;;9.57;1.85;;;10.00;85.90;;;;;;6084537;23;20010;-89
2022/01/08 11:43:13;;;;;;;10.57;2.35;;;10.00;86.00;;;;;;6084568;23;20462;-89
2022/01/08 11:45:47;;;;;;;12.20;2.83;;;10.00;86.00;;;;;;6086105;23;20037;-90
2022/01/08 11:48:14;;;;;;;10.75;2.10;;;10.00;86.10;;;;;;6083188;23;20014;-90
2022/01/08 11:50:54;;;;;;;13.35;2.92;;;10.00;86.20;;;;;;6085181;23;20010;-90
2022/01/08 11:53:32;;;;;;;7.80;2.47;;;10.00;86.10;;;;;;6093922;23;20049;-90
2022/01/08 11:56:03;;;;;;;8.55;2.47;;;10.00;86.30;;;;;;6060472;23;20008;-90
2022/01/08 11:58:35;;;;;;;8.13;2.22;;;10.40;86.50;;;;;;6085604;23;20026;-90
2022/01/08 12:01:13;;;;;;;4.82;1.50;;;10.10;86.30;;;;;;6108638;23;20029;-90
2022/01/08 12:03:51;;;;;;;13.65;2.97;;;10.10;86.30;;;;;;6132967;23;20030;-90
2022/01/08 12:06:28;;;;;;;10.63;3.13;;;10.30;86.50;;;;;;6084602;23;20013;-90
2022/01/08 12:09:07;;;;;;;15.27;2.85;;;10.00;86.50;;;;;;6108182;23;20016;-90
2022/01/08 12:11:53;;;;;;;17.83;4.95;;;10.40;86.60;;;;;;6109793;23;20014;-91
2022/01/08 12:14:29;;;;;;;19.00;6.00;;;10.30;86.70;;;;;;6107543;23;20010;-90
2022/01/08 12:16:58;;;;;;;17.23;5.43;;;10.10;86.50;;;;;;6083600;23;20034;-90
2022/01/08 12:19:36;;;;;;;7.93;3.03;;;10.10;86.80;;;;;;6085022;23;20002;-90
2022/01/08 12:22:22;;;;;;;18.58;5.07;;;10.10;86.70;;;;;;6106739;23;20073;-90
2022/01/08 12:24:53;;;;;;;29.73;11.57;;;10.40;87.00;;;;;;6131178;23;20018;-89
2022/01/08 12:27:45;;;;;;;18.33;7.32;;;10.10;86.90;;;;;;6116777;23;20026;-90
2022/01/08 12:30:17;;;;;;;15.05;5.20;;;10.10;87.00;;;;;;6031258;23;20018;-93
2022/01/08 12:32:47;;;;;;;10.15;3.83;;;10.10;86.90;;;;;;6102477;23;20075;-94
2022/01/08 12:35:20;;;;;;;12.02;4.05;;;10.50;87.40;;;;;;6055757;23;20042;-91
2022/01/08 12:37:48;;;;;;;5.72;2.35;;;10.10;87.50;;;;;;6102705;23;20050;-92
2022/01/08 12:40:34;;;;;;;8.95;3.00;;;10.10;87.40;;;;;;6055454;23;20014;-93
2022/01/08 12:43:33;;;;;;;14.10;3.80;;;10.10;87.40;;;;;;6104903;23;20030;-92
2022/01/08 12:46:22;;;;;;;11.30;3.55;;;10.10;87.50;;;;;;6032050;23;20018;-91
2022/01/08 12:49:12;;;;;;;16.40;3.50;;;10.10;87.50;;;;;;6056289;23;20044;-92
2022/01/08 12:51:50;;;;;;;10.85;3.05;;;10.10;87.50;;;;;;6084746;23;20034;-91
2022/01/08 12:54:18;;;;;;;10.65;3.08;;;10.20;87.90;;;;;;6112298;23;20024;-92
2022/01/08 12:57:05;;;;;;;14.50;3.30;;;10.40;87.90;;;;;;6105248;23;20034;-92
2022/01/08 12:59:39;;;;;;;12.00;2.70;;;10.20;88.00;;;;;;6034454;23;20010;-91
2022/01/08 13:02:09;;;;;;;6.95;1.83;;;10.60;88.10;;;;;;6055947;23;20025;-92
2022/01/08 13:04:36;;;;;;;20.05;4.22;;;10.60;88.70;;;;;;6057950;23;20011;-92
2022/01/08 13:07:02;;;;;;;10.75;4.25;;;10.20;88.50;;;;;;6059916;23;20018;-91
2022/01/08 13:09:27;;;;;;;13.75;4.13;;;10.20;88.20;;;;;;6035706;23;20010;-92
2022/01/08 13:11:53;;;;;;;16.77;4.18;;;10.20;88.10;;;;;;6055818;23;20029;-91
2022/01/08 13:14:21;;;;;;;12.75;4.53;;;10.50;88.40;;;;;;6032715;23;20010;-91
2022/01/08 13:16:53;;;;;;;9.48;2.67;;;10.50;88.40;;;;;;6031803;23;20018;-92
2022/01/08 13:19:21;;;;;;;17.92;3.17;;;10.60;88.60;;;;;;6032223;23;20035;-92
2022/01/08 13:21:50;;;;;;;7.30;2.00;;;10.20;88.30;;;;;;6085412;23;20095;-92
2022/01/08 13:24:20;;;;;;;9.70;2.40;;;10.50;88.60;;;;;;6108624;23;20018;-92
2022/01/08 13:27:00;;;;;;;8.93;2.67;;;10.70;88.80;;;;;;6128407;23;20014;-92